sensor_id;sensor_type;location;lat;lon;timestamp;P1;durP1;ratioP1;P2;durP2;ratioP2
46363;SDS011;32071;49.036;9.344;2023-04-10T00:02:12;14.67;;;8.67;;
46363;SDS011;32071;49.036;9.344;2023-04-10T00:04:37;13.23;;;7.80;;
46363;SDS011;32071;49.036;9.344;2023-04-10T00:07:03;15.60;;;7.10;;
46363;SDS011;32071;49.036;9.344;2023-04-10T00:09:29;11.33;;;6.83;;
46363;SDS011;32071;49.036;9.344;2023-04-10T00:11:55;14.10;;;7.77;;
46363;SDS011;32071;49.036;9.344;2023-04-10T00:14:21;14.90;;;7.77;;
46363;SDS011;32071;49.036;9.344;2023-04-10T00:16:48;16.20;;;8.03;;
46363;SDS011;32071;49.036;9.344;2023-04-10T00:19:14;16.27;;;9.43;;
46363;SDS011;32071;49.036;9.344;2023-04-10T00:21:40;13.47;;;7.57;;
46363;SDS011;32071;49.036;9.344;2023-04-10T00:24:06;14.20;;;7.40;;
46363;SDS011;32071;49.036;9.344;2023-04-10T00:26:31;15.00;;;8.13;;
46363;SDS011;32071;49.036;9.344;2023-04-10T00:28:57;13.27;;;7.13;;
46363;SDS011;32071;49.036;9.344;2023-04-10T00:31:23;15.13;;;8.47;;
46363;SDS011;32071;49.036;9.344;2023-04-10T00:33:49;16.10;;;8.90;;
46363;SDS011;32071;49.036;9.344;2023-04-10T00:36:14;13.50;;;7.63;;
46363;SDS011;32071;49.036;9.344;2023-04-10T00:38:40;14.63;;;8.27;;
46363;SDS011;32071;49.036;9.344;2023-04-10T00:41:06;15.47;;;8.40;;
46363;SDS011;32071;49.036;9.344;2023-04-10T00:43:31;16.03;;;9.07;;
46363;SDS011;32071;49.036;9.344;2023-04-10T00:45:57;16.50;;;7.93;;
46363;SDS011;32071;49.036;9.344;2023-04-10T00:48:23;15.10;;;8.70;;
46363;SDS011;32071;49.036;9.344;2023-04-10T00:50:49;13.17;;;7.33;;
46363;SDS011;32071;49.036;9.344;2023-04-10T00:53:15;11.47;;;7.50;;
46363;SDS011;32071;49.036;9.344;2023-04-10T00:55:40;12.57;;;7.70;;
46363;SDS011;32071;49.036;9.344;2023-04-10T00:58:06;14.20;;;7.33;;
46363;SDS011;32071;49.036;9.344;2023-04-10T01:00:32;14.70;;;8.20;;
46363;SDS011;32071;49.036;9.344;2023-04-10T01:02:57;16.47;;;8.10;;
46363;SDS011;32071;49.036;9.344;2023-04-10T01:05:26;16.33;;;9.03;;
46363;SDS011;32071;49.036;9.344;2023-04-10T01:08:12;13.57;;;7.13;;
46363;SDS011;32071;49.036;9.344;2023-04-10T01:10:54;13.53;;;7.20;;
46363;SDS011;32071;49.036;9.344;2023-04-10T01:13:44;13.53;;;7.00;;
46363;SDS011;32071;49.036;9.344;2023-04-10T01:16:30;12.20;;;7.23;;
46363;SDS011;32071;49.036;9.344;2023-04-10T01:21:52;12.30;;;7.30;;
46363;SDS011;32071;49.036;9.344;2023-04-10T01:24:33;14.60;;;7.90;;
46363;SDS011;32071;49.036;9.344;2023-04-10T01:27:03;11.13;;;8.00;;
46363;SDS011;32071;49.036;9.344;2023-04-10T01:29:48;14.67;;;7.80;;
46363;SDS011;32071;49.036;9.344;2023-04-10T01:32:19;10.63;;;6.70;;
46363;SDS011;32071;49.036;9.344;2023-04-10T01:34:48;13.20;;;7.87;;
46363;SDS011;32071;49.036;9.344;2023-04-10T01:37:20;11.53;;;7.50;;
46363;SDS011;32071;49.036;9.344;2023-04-10T01:39:49;14.80;;;7.50;;
46363;SDS011;32071;49.036;9.344;2023-04-10T01:42:23;13.47;;;7.43;;
46363;SDS011;32071;49.036;9.344;2023-04-10T01:44:50;14.30;;;7.23;;
46363;SDS011;32071;49.036;9.344;2023-04-10T01:47:18;18.63;;;7.80;;
46363;SDS011;32071;49.036;9.344;2023-04-10T01:49:45;12.30;;;7.40;;
46363;SDS011;32071;49.036;9.344;2023-04-10T01:52:13;13.30;;;7.20;;
46363;SDS011;32071;49.036;9.344;2023-04-10T01:54:40;15.70;;;8.40;;
46363;SDS011;32071;49.036;9.344;2023-04-10T01:57:07;15.10;;;7.93;;
46363;SDS011;32071;49.036;9.344;2023-04-10T01:59:36;13.87;;;8.00;;
46363;SDS011;32071;49.036;9.344;2023-04-10T02:02:02;15.00;;;8.00;;
46363;SDS011;32071;49.036;9.344;2023-04-10T02:04:28;12.87;;;7.30;;
46363;SDS011;32071;49.036;9.344;2023-04-10T02:09:34;12.67;;;7.30;;
46363;SDS011;32071;49.036;9.344;2023-04-10T02:12:15;15.07;;;8.23;;
46363;SDS011;32071;49.036;9.344;2023-04-10T02:14:44;16.77;;;8.60;;
46363;SDS011;32071;49.036;9.344;2023-04-10T02:17:12;14.93;;;8.03;;
46363;SDS011;32071;49.036;9.344;2023-04-10T02:19:40;13.83;;;7.70;;
46363;SDS011;32071;49.036;9.344;2023-04-10T02:22:09;13.27;;;7.83;;
46363;SDS011;32071;49.036;9.344;2023-04-10T02:24:34;13.40;;;7.30;;
46363;SDS011;32071;49.036;9.344;2023-04-10T02:27:00;13.37;;;7.17;;
46363;SDS011;32071;49.036;9.344;2023-04-10T02:29:26;12.67;;;7.50;;
46363;SDS011;32071;49.036;9.344;2023-04-10T02:31:51;11.30;;;7.20;;
46363;SDS011;32071;49.036;9.344;2023-04-10T02:34:17;14.07;;;7.60;;
46363;SDS011;32071;49.036;9.344;2023-04-10T02:36:43;17.43;;;8.23;;
46363;SDS011;32071;49.036;9.344;2023-04-10T02:39:08;12.87;;;7.87;;
46363;SDS011;32071;49.036;9.344;2023-04-10T02:41:34;11.30;;;6.60;;
46363;SDS011;32071;49.036;9.344;2023-04-10T02:43:59;12.63;;;7.13;;
46363;SDS011;32071;49.036;9.344;2023-04-10T02:46:25;14.07;;;7.57;;
46363;SDS011;32071;49.036;9.344;2023-04-10T02:48:51;14.20;;;7.80;;
46363;SDS011;32071;49.036;9.344;2023-04-10T02:51:17;13.77;;;7.13;;
46363;SDS011;32071;49.036;9.344;2023-04-10T02:53:43;12.47;;;6.70;;
46363;SDS011;32071;49.036;9.344;2023-04-10T02:56:08;11.90;;;6.30;;
46363;SDS011;32071;49.036;9.344;2023-04-10T02:58:36;13.40;;;7.73;;
46363;SDS011;32071;49.036;9.344;2023-04-10T03:01:02;17.00;;;8.60;;
46363;SDS011;32071;49.036;9.344;2023-04-10T03:03:29;10.43;;;6.97;;
46363;SDS011;32071;49.036;9.344;2023-04-10T03:05:55;11.27;;;6.53;;
46363;SDS011;32071;49.036;9.344;2023-04-10T03:08:20;11.30;;;7.23;;
46363;SDS011;32071;49.036;9.344;2023-04-10T03:10:46;12.73;;;7.93;;
46363;SDS011;32071;49.036;9.344;2023-04-10T03:13:15;15.13;;;8.37;;
46363;SDS011;32071;49.036;9.344;2023-04-10T03:15:41;12.80;;;6.93;;
46363;SDS011;32071;49.036;9.344;2023-04-10T03:18:06;15.20;;;7.53;;
46363;SDS011;32071;49.036;9.344;2023-04-10T03:20:34;13.17;;;7.20;;
46363;SDS011;32071;49.036;9.344;2023-04-10T03:23:03;12.17;;;6.93;;
46363;SDS011;32071;49.036;9.344;2023-04-10T03:25:29;14.43;;;8.40;;
46363;SDS011;32071;49.036;9.344;2023-04-10T03:27:56;14.63;;;8.27;;
46363;SDS011;32071;49.036;9.344;2023-04-10T03:30:21;12.47;;;7.50;;
46363;SDS011;32071;49.036;9.344;2023-04-10T03:32:47;14.10;;;7.90;;
46363;SDS011;32071;49.036;9.344;2023-04-10T03:35:13;16.17;;;7.70;;
46363;SDS011;32071;49.036;9.344;2023-04-10T03:37:38;17.50;;;8.30;;
46363;SDS011;32071;49.036;9.344;2023-04-10T03:40:06;15.70;;;8.70;;
46363;SDS011;32071;49.036;9.344;2023-04-10T03:42:33;11.57;;;6.83;;
46363;SDS011;32071;49.036;9.344;2023-04-10T03:44:59;16.63;;;7.70;;
46363;SDS011;32071;49.036;9.344;2023-04-10T03:47:29;16.37;;;8.67;;
46363;SDS011;32071;49.036;9.344;2023-04-10T03:49:55;12.97;;;7.43;;
46363;SDS011;32071;49.036;9.344;2023-04-10T03:52:21;13.43;;;7.60;;
46363;SDS011;32071;49.036;9.344;2023-04-10T03:54:46;11.17;;;7.67;;
46363;SDS011;32071;49.036;9.344;2023-04-10T03:57:12;12.80;;;8.20;;
46363;SDS011;32071;49.036;9.344;2023-04-10T03:59:38;15.10;;;8.20;;
46363;SDS011;32071;49.036;9.344;2023-04-10T04:02:03;12.87;;;7.67;;
46363;SDS011;32071;49.036;9.344;2023-04-10T04:04:31;20.10;;;8.53;;
46363;SDS011;32071;49.036;9.344;2023-04-10T04:06:56;12.43;;;7.57;;
46363;SDS011;32071;49.036;9.344;2023-04-10T04:09:22;13.23;;;6.90;;
46363;SDS011;32071;49.036;9.344;2023-04-10T04:11:48;13.83;;;7.87;;
46363;SDS011;32071;49.036;9.344;2023-04-10T04:14:13;14.63;;;7.90;;
46363;SDS011;32071;49.036;9.344;2023-04-10T04:16:39;11.93;;;7.70;;
46363;SDS011;32071;49.036;9.344;2023-04-10T04:19:04;12.20;;;7.40;;
46363;SDS011;32071;49.036;9.344;2023-04-10T04:21:30;13.43;;;7.40;;
46363;SDS011;32071;49.036;9.344;2023-04-10T04:23:56;13.70;;;7.87;;
46363;SDS011;32071;49.036;9.344;2023-04-10T04:26:21;13.43;;;7.97;;
46363;SDS011;32071;49.036;9.344;2023-04-10T04:28:49;12.87;;;7.27;;
46363;SDS011;32071;49.036;9.344;2023-04-10T04:31:14;13.50;;;7.70;;
46363;SDS011;32071;49.036;9.344;2023-04-10T04:33:40;12.80;;;7.20;;
46363;SDS011;32071;49.036;9.344;2023-04-10T04:36:06;14.03;;;7.30;;
46363;SDS011;32071;49.036;9.344;2023-04-10T04:38:32;11.57;;;6.50;;
46363;SDS011;32071;49.036;9.344;2023-04-10T04:40:57;12.53;;;6.60;;
46363;SDS011;32071;49.036;9.344;2023-04-10T04:43:23;13.80;;;7.10;;
46363;SDS011;32071;49.036;9.344;2023-04-10T04:45:48;13.43;;;7.13;;
46363;SDS011;32071;49.036;9.344;2023-04-10T04:48:14;17.90;;;8.00;;
46363;SDS011;32071;49.036;9.344;2023-04-10T04:50:40;12.40;;;7.70;;
46363;SDS011;32071;49.036;9.344;2023-04-10T04:53:06;13.00;;;7.60;;
46363;SDS011;32071;49.036;9.344;2023-04-10T04:55:32;11.87;;;6.97;;
46363;SDS011;32071;49.036;9.344;2023-04-10T04:57:58;14.10;;;7.20;;
46363;SDS011;32071;49.036;9.344;2023-04-10T05:00:24;12.50;;;7.20;;
46363;SDS011;32071;49.036;9.344;2023-04-10T05:02:50;12.73;;;7.13;;
46363;SDS011;32071;49.036;9.344;2023-04-10T05:05:15;12.30;;;7.47;;
46363;SDS011;32071;49.036;9.344;2023-04-10T05:07:41;14.30;;;7.20;;
46363;SDS011;32071;49.036;9.344;2023-04-10T05:10:07;13.27;;;6.40;;
46363;SDS011;32071;49.036;9.344;2023-04-10T05:12:32;13.50;;;7.37;;
46363;SDS011;32071;49.036;9.344;2023-04-10T05:14:58;12.43;;;7.53;;
46363;SDS011;32071;49.036;9.344;2023-04-10T05:17:24;13.93;;;7.30;;
46363;SDS011;32071;49.036;9.344;2023-04-10T05:19:50;14.60;;;7.80;;
46363;SDS011;32071;49.036;9.344;2023-04-10T05:22:15;13.20;;;6.93;;
46363;SDS011;32071;49.036;9.344;2023-04-10T05:24:41;13.97;;;7.83;;
46363;SDS011;32071;49.036;9.344;2023-04-10T05:27:06;12.17;;;7.30;;
46363;SDS011;32071;49.036;9.344;2023-04-10T05:29:32;13.13;;;7.80;;
46363;SDS011;32071;49.036;9.344;2023-04-10T05:31:58;12.00;;;6.93;;
46363;SDS011;32071;49.036;9.344;2023-04-10T05:34:24;12.47;;;7.20;;
46363;SDS011;32071;49.036;9.344;2023-04-10T05:36:49;13.83;;;8.67;;
46363;SDS011;32071;49.036;9.344;2023-04-10T05:39:15;17.73;;;7.30;;
46363;SDS011;32071;49.036;9.344;2023-04-10T05:41:42;9.57;;;6.47;;
46363;SDS011;32071;49.036;9.344;2023-04-10T05:44:07;13.73;;;8.17;;
46363;SDS011;32071;49.036;9.344;2023-04-10T05:46:33;12.40;;;7.07;;
46363;SDS011;32071;49.036;9.344;2023-04-10T05:48:58;24.27;;;7.50;;
46363;SDS011;32071;49.036;9.344;2023-04-10T05:51:24;11.60;;;7.07;;
46363;SDS011;32071;49.036;9.344;2023-04-10T05:53:50;11.90;;;6.87;;
46363;SDS011;32071;49.036;9.344;2023-04-10T05:56:16;12.07;;;7.43;;
46363;SDS011;32071;49.036;9.344;2023-04-10T05:58:41;10.80;;;6.63;;
46363;SDS011;32071;49.036;9.344;2023-04-10T06:01:07;12.23;;;7.33;;
46363;SDS011;32071;49.036;9.344;2023-04-10T06:03:32;12.73;;;7.40;;
46363;SDS011;32071;49.036;9.344;2023-04-10T06:05:59;11.57;;;7.50;;
46363;SDS011;32071;49.036;9.344;2023-04-10T06:08:26;13.47;;;7.80;;
46363;SDS011;32071;49.036;9.344;2023-04-10T06:10:52;10.80;;;6.90;;
46363;SDS011;32071;49.036;9.344;2023-04-10T06:13:17;15.03;;;8.53;;
46363;SDS011;32071;49.036;9.344;2023-04-10T06:15:43;12.37;;;7.63;;
46363;SDS011;32071;49.036;9.344;2023-04-10T06:18:08;18.53;;;10.80;;
46363;SDS011;32071;49.036;9.344;2023-04-10T06:20:34;16.13;;;8.73;;
46363;SDS011;32071;49.036;9.344;2023-04-10T06:23:00;19.03;;;10.47;;
46363;SDS011;32071;49.036;9.344;2023-04-10T06:25:26;18.63;;;9.33;;
46363;SDS011;32071;49.036;9.344;2023-04-10T06:27:52;18.80;;;10.43;;
46363;SDS011;32071;49.036;9.344;2023-04-10T06:30:17;22.10;;;11.67;;
46363;SDS011;32071;49.036;9.344;2023-04-10T06:32:43;20.00;;;10.77;;
46363;SDS011;32071;49.036;9.344;2023-04-10T06:35:08;17.63;;;9.03;;
46363;SDS011;32071;49.036;9.344;2023-04-10T06:37:35;14.77;;;8.70;;
46363;SDS011;32071;49.036;9.344;2023-04-10T06:40:05;13.90;;;8.47;;
46363;SDS011;32071;49.036;9.344;2023-04-10T06:42:32;32.20;;;13.30;;
46363;SDS011;32071;49.036;9.344;2023-04-10T06:44:58;38.23;;;16.17;;
46363;SDS011;32071;49.036;9.344;2023-04-10T06:47:23;23.77;;;12.60;;
46363;SDS011;32071;49.036;9.344;2023-04-10T06:49:49;22.57;;;11.03;;
46363;SDS011;32071;49.036;9.344;2023-04-10T06:52:15;19.13;;;10.00;;
46363;SDS011;32071;49.036;9.344;2023-04-10T06:54:41;13.70;;;8.77;;
46363;SDS011;32071;49.036;9.344;2023-04-10T06:57:07;11.23;;;7.70;;
46363;SDS011;32071;49.036;9.344;2023-04-10T06:59:32;11.00;;;7.03;;
46363;SDS011;32071;49.036;9.344;2023-04-10T07:01:59;13.07;;;6.80;;
46363;SDS011;32071;49.036;9.344;2023-04-10T07:04:25;11.30;;;7.40;;
46363;SDS011;32071;49.036;9.344;2023-04-10T07:06:51;13.30;;;7.70;;
46363;SDS011;32071;49.036;9.344;2023-04-10T07:09:17;9.10;;;6.47;;
46363;SDS011;32071;49.036;9.344;2023-04-10T07:11:42;12.53;;;7.47;;
46363;SDS011;32071;49.036;9.344;2023-04-10T07:14:08;10.03;;;6.93;;
46363;SDS011;32071;49.036;9.344;2023-04-10T07:16:33;10.03;;;6.23;;
46363;SDS011;32071;49.036;9.344;2023-04-10T07:18:59;10.10;;;6.53;;
46363;SDS011;32071;49.036;9.344;2023-04-10T07:21:25;11.63;;;6.93;;
46363;SDS011;32071;49.036;9.344;2023-04-10T07:23:51;9.90;;;6.43;;
46363;SDS011;32071;49.036;9.344;2023-04-10T07:26:16;9.00;;;6.83;;
46363;SDS011;32071;49.036;9.344;2023-04-10T07:28:42;13.60;;;7.50;;
46363;SDS011;32071;49.036;9.344;2023-04-10T07:31:08;10.70;;;6.70;;
46363;SDS011;32071;49.036;9.344;2023-04-10T07:33:35;9.67;;;6.67;;
46363;SDS011;32071;49.036;9.344;2023-04-10T07:36:01;9.13;;;6.00;;
46363;SDS011;32071;49.036;9.344;2023-04-10T07:38:27;9.07;;;6.80;;
46363;SDS011;32071;49.036;9.344;2023-04-10T07:40:56;9.57;;;6.80;;
46363;SDS011;32071;49.036;9.344;2023-04-10T07:43:22;9.67;;;6.80;;
46363;SDS011;32071;49.036;9.344;2023-04-10T07:45:48;7.73;;;5.90;;
46363;SDS011;32071;49.036;9.344;2023-04-10T07:48:14;8.73;;;5.93;;
46363;SDS011;32071;49.036;9.344;2023-04-10T07:50:39;11.43;;;7.17;;
46363;SDS011;32071;49.036;9.344;2023-04-10T07:53:05;9.07;;;6.20;;
46363;SDS011;32071;49.036;9.344;2023-04-10T07:55:37;8.50;;;5.90;;
46363;SDS011;32071;49.036;9.344;2023-04-10T07:58:03;7.60;;;5.63;;
46363;SDS011;32071;49.036;9.344;2023-04-10T08:00:28;9.07;;;5.77;;
46363;SDS011;32071;49.036;9.344;2023-04-10T08:02:54;7.67;;;5.80;;
46363;SDS011;32071;49.036;9.344;2023-04-10T08:05:20;9.20;;;6.73;;
46363;SDS011;32071;49.036;9.344;2023-04-10T08:07:46;9.53;;;6.00;;
46363;SDS011;32071;49.036;9.344;2023-04-10T08:10:11;8.83;;;5.97;;
46363;SDS011;32071;49.036;9.344;2023-04-10T08:12:37;7.83;;;5.67;;
46363;SDS011;32071;49.036;9.344;2023-04-10T08:15:03;7.33;;;5.30;;
46363;SDS011;32071;49.036;9.344;2023-04-10T08:17:29;7.17;;;5.40;;
46363;SDS011;32071;49.036;9.344;2023-04-10T08:19:55;7.30;;;5.27;;
46363;SDS011;32071;49.036;9.344;2023-04-10T08:22:20;5.73;;;5.07;;
46363;SDS011;32071;49.036;9.344;2023-04-10T08:24:46;8.17;;;5.40;;
46363;SDS011;32071;49.036;9.344;2023-04-10T08:27:11;6.70;;;5.10;;
46363;SDS011;32071;49.036;9.344;2023-04-10T08:29:40;6.90;;;5.10;;
46363;SDS011;32071;49.036;9.344;2023-04-10T08:32:06;8.03;;;5.83;;
46363;SDS011;32071;49.036;9.344;2023-04-10T08:34:32;7.70;;;5.20;;
46363;SDS011;32071;49.036;9.344;2023-04-10T08:36:57;7.97;;;5.60;;
46363;SDS011;32071;49.036;9.344;2023-04-10T08:39:23;6.80;;;5.43;;
46363;SDS011;32071;49.036;9.344;2023-04-10T08:41:49;7.20;;;5.13;;
46363;SDS011;32071;49.036;9.344;2023-04-10T08:44:15;8.30;;;5.27;;
46363;SDS011;32071;49.036;9.344;2023-04-10T08:46:42;5.90;;;5.03;;
46363;SDS011;32071;49.036;9.344;2023-04-10T08:49:09;5.87;;;4.67;;
46363;SDS011;32071;49.036;9.344;2023-04-10T08:51:59;5.50;;;4.13;;
46363;SDS011;32071;49.036;9.344;2023-04-10T08:54:33;6.50;;;5.30;;
46363;SDS011;32071;49.036;9.344;2023-04-10T08:57:02;6.13;;;4.17;;
46363;SDS011;32071;49.036;9.344;2023-04-10T08:59:30;6.93;;;4.83;;
46363;SDS011;32071;49.036;9.344;2023-04-10T09:01:58;4.33;;;3.93;;
46363;SDS011;32071;49.036;9.344;2023-04-10T09:04:24;7.47;;;5.20;;
46363;SDS011;32071;49.036;9.344;2023-04-10T09:06:53;5.70;;;4.53;;
46363;SDS011;32071;49.036;9.344;2023-04-10T09:09:19;5.80;;;4.50;;
46363;SDS011;32071;49.036;9.344;2023-04-10T09:14:20;5.50;;;4.80;;
46363;SDS011;32071;49.036;9.344;2023-04-10T09:16:49;5.23;;;4.73;;
46363;SDS011;32071;49.036;9.344;2023-04-10T09:19:51;5.57;;;3.90;;
46363;SDS011;32071;49.036;9.344;2023-04-10T09:22:12;4.80;;;4.27;;
46363;SDS011;32071;49.036;9.344;2023-04-10T09:24:38;5.70;;;4.63;;
46363;SDS011;32071;49.036;9.344;2023-04-10T09:27:10;5.43;;;4.30;;
46363;SDS011;32071;49.036;9.344;2023-04-10T09:29:50;4.70;;;4.10;;
46363;SDS011;32071;49.036;9.344;2023-04-10T09:35:11;5.10;;;4.03;;
46363;SDS011;32071;49.036;9.344;2023-04-10T09:37:38;6.00;;;5.00;;
46363;SDS011;32071;49.036;9.344;2023-04-10T09:40:05;5.80;;;4.40;;
46363;SDS011;32071;49.036;9.344;2023-04-10T09:42:48;5.10;;;4.07;;
46363;SDS011;32071;49.036;9.344;2023-04-10T09:45:13;4.97;;;3.83;;
46363;SDS011;32071;49.036;9.344;2023-04-10T09:47:43;6.70;;;4.10;;
46363;SDS011;32071;49.036;9.344;2023-04-10T09:50:37;4.60;;;3.70;;
46363;SDS011;32071;49.036;9.344;2023-04-10T09:53:05;6.00;;;4.07;;
46363;SDS011;32071;49.036;9.344;2023-04-10T09:55:32;3.87;;;3.50;;
46363;SDS011;32071;49.036;9.344;2023-04-10T09:58:00;3.27;;;2.97;;
46363;SDS011;32071;49.036;9.344;2023-04-10T10:00:27;4.20;;;3.33;;
46363;SDS011;32071;49.036;9.344;2023-04-10T10:02:53;3.97;;;2.83;;
46363;SDS011;32071;49.036;9.344;2023-04-10T10:05:21;3.57;;;3.00;;
46363;SDS011;32071;49.036;9.344;2023-04-10T10:07:51;4.37;;;3.00;;
46363;SDS011;32071;49.036;9.344;2023-04-10T10:10:18;3.53;;;3.23;;
46363;SDS011;32071;49.036;9.344;2023-04-10T10:12:53;3.07;;;2.70;;
46363;SDS011;32071;49.036;9.344;2023-04-10T10:15:33;3.33;;;3.00;;
46363;SDS011;32071;49.036;9.344;2023-04-10T10:18:19;5.30;;;4.00;;
46363;SDS011;32071;49.036;9.344;2023-04-10T10:20:57;4.00;;;3.60;;
46363;SDS011;32071;49.036;9.344;2023-04-10T10:23:24;4.83;;;4.00;;
46363;SDS011;32071;49.036;9.344;2023-04-10T10:25:51;4.77;;;3.43;;
46363;SDS011;32071;49.036;9.344;2023-04-10T10:28:19;5.17;;;3.43;;
46363;SDS011;32071;49.036;9.344;2023-04-10T10:30:46;3.77;;;3.37;;
46363;SDS011;32071;49.036;9.344;2023-04-10T10:33:12;4.50;;;3.80;;
46363;SDS011;32071;49.036;9.344;2023-04-10T10:35:38;4.47;;;3.73;;
46363;SDS011;32071;49.036;9.344;2023-04-10T10:38:05;4.23;;;3.83;;
46363;SDS011;32071;49.036;9.344;2023-04-10T10:40:40;4.07;;;3.67;;
46363;SDS011;32071;49.036;9.344;2023-04-10T10:46:05;4.23;;;3.83;;
46363;SDS011;32071;49.036;9.344;2023-04-10T10:48:35;4.13;;;3.57;;
46363;SDS011;32071;49.036;9.344;2023-04-10T10:51:01;10.37;;;9.40;;
46363;SDS011;32071;49.036;9.344;2023-04-10T10:55:57;4.00;;;3.37;;
46363;SDS011;32071;49.036;9.344;2023-04-10T11:01:27;3.67;;;3.37;;
46363;SDS011;32071;49.036;9.344;2023-04-10T11:03:52;3.80;;;3.40;;
46363;SDS011;32071;49.036;9.344;2023-04-10T11:06:19;3.90;;;3.53;;
46363;SDS011;32071;49.036;9.344;2023-04-10T11:08:46;4.77;;;3.60;;
46363;SDS011;32071;49.036;9.344;2023-04-10T11:11:20;3.47;;;3.17;;
46363;SDS011;32071;49.036;9.344;2023-04-10T11:16:20;3.80;;;3.40;;
46363;SDS011;32071;49.036;9.344;2023-04-10T11:19:08;4.60;;;3.57;;
46363;SDS011;32071;49.036;9.344;2023-04-10T11:24:28;3.73;;;3.27;;
46363;SDS011;32071;49.036;9.344;2023-04-10T11:26:54;4.43;;;3.50;;
46363;SDS011;32071;49.036;9.344;2023-04-10T11:32:01;4.00;;;3.60;;
46363;SDS011;32071;49.036;9.344;2023-04-10T11:34:28;4.10;;;3.70;;
46363;SDS011;32071;49.036;9.344;2023-04-10T11:36:57;3.90;;;3.37;;
46363;SDS011;32071;49.036;9.344;2023-04-10T11:39:27;3.60;;;3.10;;
46363;SDS011;32071;49.036;9.344;2023-04-10T11:41:54;3.20;;;2.90;;
46363;SDS011;32071;49.036;9.344;2023-04-10T11:46:50;3.03;;;2.73;;
46363;SDS011;32071;49.036;9.344;2023-04-10T11:49:17;3.10;;;2.87;;
46363;SDS011;32071;49.036;9.344;2023-04-10T11:51:47;2.70;;;2.40;;
46363;SDS011;32071;49.036;9.344;2023-04-10T11:54:15;2.97;;;2.70;;
46363;SDS011;32071;49.036;9.344;2023-04-10T11:56:43;2.90;;;2.70;;
46363;SDS011;32071;49.036;9.344;2023-04-10T11:59:32;3.10;;;2.80;;
46363;SDS011;32071;49.036;9.344;2023-04-10T12:02:08;3.80;;;3.50;;
46363;SDS011;32071;49.036;9.344;2023-04-10T12:04:36;3.30;;;3.00;;
46363;SDS011;32071;49.036;9.344;2023-04-10T12:07:02;3.97;;;3.30;;
46363;SDS011;32071;49.036;9.344;2023-04-10T12:09:28;5.00;;;3.37;;
46363;SDS011;32071;49.036;9.344;2023-04-10T12:11:54;3.50;;;3.17;;
46363;SDS011;32071;49.036;9.344;2023-04-10T12:14:28;3.43;;;3.10;;
46363;SDS011;32071;49.036;9.344;2023-04-10T12:16:54;4.27;;;3.30;;
46363;SDS011;32071;49.036;9.344;2023-04-10T12:19:20;3.23;;;2.93;;
46363;SDS011;32071;49.036;9.344;2023-04-10T12:21:47;3.20;;;2.90;;
46363;SDS011;32071;49.036;9.344;2023-04-10T12:24:19;3.70;;;3.20;;
46363;SDS011;32071;49.036;9.344;2023-04-10T12:27:16;3.60;;;3.30;;
46363;SDS011;32071;49.036;9.344;2023-04-10T12:29:46;3.20;;;2.90;;
46363;SDS011;32071;49.036;9.344;2023-04-10T12:32:14;3.43;;;3.13;;
46363;SDS011;32071;49.036;9.344;2023-04-10T12:34:39;2.83;;;2.60;;
46363;SDS011;32071;49.036;9.344;2023-04-10T12:37:05;4.60;;;3.37;;
46363;SDS011;32071;49.036;9.344;2023-04-10T12:39:31;3.90;;;3.60;;
46363;SDS011;32071;49.036;9.344;2023-04-10T12:42:12;3.87;;;3.53;;
46363;SDS011;32071;49.036;9.344;2023-04-10T12:44:58;3.30;;;2.90;;
46363;SDS011;32071;49.036;9.344;2023-04-10T12:47:25;4.03;;;3.10;;
46363;SDS011;32071;49.036;9.344;2023-04-10T12:50:01;4.00;;;3.43;;
46363;SDS011;32071;49.036;9.344;2023-04-10T12:52:37;3.10;;;2.90;;
46363;SDS011;32071;49.036;9.344;2023-04-10T12:57:38;3.50;;;3.20;;
46363;SDS011;32071;49.036;9.344;2023-04-10T13:00:05;2.93;;;2.73;;
46363;SDS011;32071;49.036;9.344;2023-04-10T13:02:31;3.30;;;2.87;;
46363;SDS011;32071;49.036;9.344;2023-04-10T13:04:56;3.60;;;2.97;;
46363;SDS011;32071;49.036;9.344;2023-04-10T13:07:23;3.90;;;2.87;;
46363;SDS011;32071;49.036;9.344;2023-04-10T13:09:48;3.50;;;3.20;;
46363;SDS011;32071;49.036;9.344;2023-04-10T13:12:14;2.70;;;2.47;;
46363;SDS011;32071;49.036;9.344;2023-04-10T13:14:40;2.90;;;2.63;;
46363;SDS011;32071;49.036;9.344;2023-04-10T13:17:06;3.13;;;2.87;;
46363;SDS011;32071;49.036;9.344;2023-04-10T13:19:31;3.03;;;2.77;;
46363;SDS011;32071;49.036;9.344;2023-04-10T13:21:57;2.97;;;2.77;;
46363;SDS011;32071;49.036;9.344;2023-04-10T13:24:25;3.00;;;2.70;;
46363;SDS011;32071;49.036;9.344;2023-04-10T13:26:50;3.03;;;2.83;;
46363;SDS011;32071;49.036;9.344;2023-04-10T13:29:16;2.47;;;2.27;;
46363;SDS011;32071;49.036;9.344;2023-04-10T13:31:41;3.73;;;2.50;;
46363;SDS011;32071;49.036;9.344;2023-04-10T13:34:07;1.97;;;1.87;;
46363;SDS011;32071;49.036;9.344;2023-04-10T13:36:33;2.13;;;2.03;;
46363;SDS011;32071;49.036;9.344;2023-04-10T13:38:58;2.33;;;2.13;;
46363;SDS011;32071;49.036;9.344;2023-04-10T13:41:24;2.20;;;2.00;;
46363;SDS011;32071;49.036;9.344;2023-04-10T13:43:49;2.60;;;2.40;;
46363;SDS011;32071;49.036;9.344;2023-04-10T13:46:15;2.40;;;2.20;;
46363;SDS011;32071;49.036;9.344;2023-04-10T13:48:41;2.50;;;2.30;;
46363;SDS011;32071;49.036;9.344;2023-04-10T13:51:07;2.30;;;2.10;;
46363;SDS011;32071;49.036;9.344;2023-04-10T13:53:33;2.83;;;2.40;;
46363;SDS011;32071;49.036;9.344;2023-04-10T13:55:58;2.57;;;2.10;;
46363;SDS011;32071;49.036;9.344;2023-04-10T13:58:24;2.50;;;2.30;;
46363;SDS011;32071;49.036;9.344;2023-04-10T14:00:52;2.40;;;2.07;;
46363;SDS011;32071;49.036;9.344;2023-04-10T14:03:18;1.90;;;1.80;;
46363;SDS011;32071;49.036;9.344;2023-04-10T14:05:43;2.67;;;2.43;;
46363;SDS011;32071;49.036;9.344;2023-04-10T14:08:09;2.40;;;2.20;;
46363;SDS011;32071;49.036;9.344;2023-04-10T14:10:38;2.20;;;2.00;;
46363;SDS011;32071;49.036;9.344;2023-04-10T14:13:04;2.33;;;2.07;;
46363;SDS011;32071;49.036;9.344;2023-04-10T14:15:31;2.73;;;2.20;;
46363;SDS011;32071;49.036;9.344;2023-04-10T14:17:57;2.63;;;2.43;;
46363;SDS011;32071;49.036;9.344;2023-04-10T14:20:23;2.40;;;2.20;;
46363;SDS011;32071;49.036;9.344;2023-04-10T14:22:48;2.80;;;2.60;;
46363;SDS011;32071;49.036;9.344;2023-04-10T14:25:14;2.40;;;2.20;;
46363;SDS011;32071;49.036;9.344;2023-04-10T14:27:40;2.60;;;2.40;;
46363;SDS011;32071;49.036;9.344;2023-04-10T14:30:07;2.90;;;2.67;;
46363;SDS011;32071;49.036;9.344;2023-04-10T14:32:33;3.27;;;3.00;;
46363;SDS011;32071;49.036;9.344;2023-04-10T14:34:59;2.67;;;2.40;;
46363;SDS011;32071;49.036;9.344;2023-04-10T14:37:24;2.90;;;2.60;;
46363;SDS011;32071;49.036;9.344;2023-04-10T14:39:50;3.03;;;2.73;;
46363;SDS011;32071;49.036;9.344;2023-04-10T14:42:16;3.43;;;3.07;;
46363;SDS011;32071;49.036;9.344;2023-04-10T14:44:41;2.70;;;2.50;;
46363;SDS011;32071;49.036;9.344;2023-04-10T14:47:07;2.57;;;2.37;;
46363;SDS011;32071;49.036;9.344;2023-04-10T14:49:32;2.60;;;2.40;;
46363;SDS011;32071;49.036;9.344;2023-04-10T14:51:58;3.00;;;2.70;;
46363;SDS011;32071;49.036;9.344;2023-04-10T14:54:24;2.97;;;2.67;;
46363;SDS011;32071;49.036;9.344;2023-04-10T14:56:49;5.03;;;2.90;;
46363;SDS011;32071;49.036;9.344;2023-04-10T14:59:15;3.43;;;3.10;;
46363;SDS011;32071;49.036;9.344;2023-04-10T15:01:41;2.90;;;2.70;;
46363;SDS011;32071;49.036;9.344;2023-04-10T15:04:07;3.33;;;3.03;;
46363;SDS011;32071;49.036;9.344;2023-04-10T15:06:32;3.10;;;2.70;;
46363;SDS011;32071;49.036;9.344;2023-04-10T15:08:58;3.30;;;3.00;;
46363;SDS011;32071;49.036;9.344;2023-04-10T15:11:24;3.27;;;2.97;;
46363;SDS011;32071;49.036;9.344;2023-04-10T15:13:50;3.27;;;2.97;;
46363;SDS011;32071;49.036;9.344;2023-04-10T15:16:15;2.83;;;2.63;;